Eola, Illinois
Current Conditions -  °F | °C
As of 9:52 AM on Monday 29 Dec 2014 (Local Time) from KDPA Reporting Station
Overcast Overcast  
Wind Chill: 17°   Ceiling: 11000
Heat Index: 27°   Visibility: 10mi
Dew Point: 20°   Wind: 12mph
Humidity: 75%   Direction: 30°NNE
Pressure: 30.37"   Gusts: NA
Location:  41.78°N, 88.24°W
Report Text: KDPA 291552Z 03010KT 10SM SCT080 OVC110 M03/M07 A3037 RMK AO2 SLP295 T10281067
Loading
Personal Weather Stations






























Interactive Weather Map New forecast layout! Learn more

10-Day Weather Forecast

Advertisements
Track Severe Weather on mobile